Time;durP1;ratioP1;P1;durP2;ratioP2;P2;SDS_P1;SDS_P2;PMS_P1;PMS_P2;Temp;Humidity;BMP_temperature;BMP_pressure;BME280_temperature;BME280_humidity;BME280_pressure;Samples;Min_cycle;Max_cycle;Signal;HPM_P1;HPM_P2
2023/02/13 00:01:56;;;;;;;32.78;17.42;;;;;;;1.07;93.61;102829.19;5026319;28;20381;-88
2023/02/13 00:04:21;;;;;;;31.08;15.55;;;;;;;1.02;93.23;102821.56;5009728;28;20076;-88
2023/02/13 00:06:46;;;;;;;29.95;15.45;;;;;;;0.99;93.12;102819.88;5009610;28;20041;-88
2023/02/13 00:09:12;;;;;;;27.95;14.88;;;;;;;0.95;92.74;102813.09;5029205;28;20033;-88
2023/02/13 00:11:38;;;;;;;27.55;15.13;;;;;;;0.89;93.23;102820.09;5008198;28;20036;-88
2023/02/13 00:14:03;;;;;;;36.17;14.02;;;;;;;0.81;93.71;102816.78;5009663;28;20092;-89
2023/02/13 00:16:29;;;;;;;27.83;14.65;;;;;;;0.79;93.97;102819.38;5023056;28;20026;-88
2023/02/13 00:18:55;;;;;;;31.33;15.35;;;;;;;0.75;94.38;102810.03;5026029;28;20109;-88
2023/02/13 00:21:20;;;;;;;26.45;12.93;;;;;;;0.74;94.33;102815.19;5008943;28;20128;-88
2023/02/13 00:23:46;;;;;;;29.40;14.18;;;;;;;0.74;95.12;102820.34;5026246;28;20052;-88
2023/02/13 00:26:13;;;;;;;22.98;13.52;;;;;;;0.75;94.76;102812.59;5026578;28;20029;-89
2023/02/13 00:28:39;;;;;;;27.27;13.50;;;;;;;0.74;94.87;102825.47;5031810;28;20025;-89
2023/02/13 00:31:08;;;;;;;25.35;13.25;;;;;;;0.67;94.95;102829.84;5018774;28;20052;-89
2023/02/13 00:33:34;;;;;;;22.92;12.77;;;;;;;0.61;95.85;102825.66;5029665;28;20120;-89
2023/02/13 00:36:10;;;;;;;24.13;12.52;;;;;;;0.56;95.92;102826.59;5011944;28;20053;-89
2023/02/13 00:38:37;;;;;;;23.05;12.02;;;;;;;0.50;96.35;102817.25;5017658;28;20034;-88
2023/02/13 00:41:03;;;;;;;23.08;11.65;;;;;;;0.48;96.90;102818.16;5031210;28;20034;-89
2023/02/13 00:43:29;;;;;;;18.92;11.23;;;;;;;0.47;97.17;102824.19;5010738;28;20146;-88
2023/02/13 00:45:55;;;;;;;22.45;12.18;;;;;;;0.43;98.02;102819.97;5010968;28;20108;-88
2023/02/13 00:48:20;;;;;;;19.13;10.20;;;;;;;0.40;97.87;102814.88;5054996;28;20123;-88
2023/02/13 00:50:46;;;;;;;22.98;11.07;;;;;;;0.34;99.24;102828.63;5055006;28;20032;-88
2023/02/13 00:53:12;;;;;;;18.63;9.98;;;;;;;0.42;100.00;102831.94;5038586;28;20021;-88
2023/02/13 00:55:37;;;;;;;16.80;8.98;;;;;;;0.75;99.91;102825.44;5030449;28;20049;-88
2023/02/13 00:58:03;;;;;;;14.90;9.63;;;;;;;1.06;98.00;102837.75;5036697;28;20033;-87
2023/02/13 01:00:28;;;;;;;16.75;8.88;;;;;;;1.03;96.35;102832.66;5031577;28;20037;-88
2023/02/13 01:02:54;;;;;;;13.35;7.55;;;;;;;0.93;96.13;102832.84;5036590;28;20042;-88
2023/02/13 01:05:19;;;;;;;14.50;8.10;;;;;;;0.78;96.20;102832.25;5012771;28;20058;-88
2023/02/13 01:07:44;;;;;;;10.85;6.40;;;;;;;0.95;99.92;102827.66;5014627;28;20144;-88
2023/02/13 01:10:10;;;;;;;13.90;6.75;;;;;;;0.96;97.26;102825.06;5016649;28;20495;-89
2023/02/13 01:12:36;;;;;;;12.30;7.18;;;;;;;0.84;96.80;102825.28;5028451;28;20445;-89
2023/02/13 01:15:02;;;;;;;10.32;6.40;;;;;;;0.76;97.59;102826.28;5005443;28;20335;-88
2023/02/13 01:17:28;;;;;;;14.88;7.10;;;;;;;0.71;98.32;102833.22;5028288;28;20451;-88
2023/02/13 01:19:53;;;;;;;13.25;7.85;;;;;;;0.56;99.58;102832.56;5031124;28;20025;-88
2023/02/13 01:22:19;;;;;;;14.68;7.10;;;;;;;0.46;100.00;102830.19;5012837;28;20090;-88
2023/02/13 01:24:44;;;;;;;13.00;7.07;;;;;;;0.54;100.00;102820.63;5018739;28;20029;-87
2023/02/13 01:27:09;;;;;;;12.15;6.95;;;;;;;0.54;100.00;102823.19;5002723;28;20025;-88
2023/02/13 01:29:35;;;;;;;8.77;4.50;;;;;;;0.93;100.00;102816.59;5019709;28;20393;-88
2023/02/13 01:32:03;;;;;;;8.60;4.80;;;;;;;1.18;99.10;102804.16;5019805;28;20025;-88
2023/02/13 01:34:28;;;;;;;8.48;5.03;;;;;;;1.17;98.07;102813.59;5005898;28;20041;-88
2023/02/13 01:36:54;;;;;;;11.98;5.10;;;;;;;1.17;97.88;102810.19;5004022;28;20029;-88
2023/02/13 01:39:19;;;;;;;13.73;5.47;;;;;;;1.22;98.63;102808.38;5003924;28;20084;-87
2023/02/13 01:41:45;;;;;;;10.43;5.88;;;;;;;1.17;97.44;102800.75;5020131;28;20449;-88
2023/02/13 01:44:48;;;;;;;10.02;5.00;;;;;;;1.03;98.11;102804.44;5029318;28;20033;-87
2023/02/13 01:47:19;;;;;;;10.95;4.93;;;;;;;0.93;98.61;102794.34;5008646;28;20061;-88
2023/02/13 01:49:46;;;;;;;10.00;5.55;;;;;;;0.86;99.04;102794.47;5028860;28;20119;-88
2023/02/13 01:52:13;;;;;;;9.82;5.68;;;;;;;0.80;100.00;102792.84;5011726;28;20064;-88
2023/02/13 01:54:39;;;;;;;12.70;5.35;;;;;;;0.76;99.48;102804.03;5025460;28;20116;-88
2023/02/13 01:57:10;;;;;;;9.05;5.18;;;;;;;0.71;99.52;102798.13;5029827;28;20513;-88
2023/02/13 01:59:48;;;;;;;10.75;5.55;;;;;;;0.65;100.00;102800.78;5028891;28;20104;-88
2023/02/13 02:02:14;;;;;;;9.25;4.95;;;;;;;0.62;100.00;102796.56;5011139;28;20029;-89
2023/02/13 02:04:42;;;;;;;14.15;5.85;;;;;;;0.61;100.00;102791.44;5010634;28;20370;-88
2023/02/13 02:07:19;;;;;;;11.90;5.80;;;;;;;0.64;100.00;102799.94;5026893;28;20037;-88
2023/02/13 02:09:45;;;;;;;8.90;5.47;;;;;;;0.63;100.00;102803.38;5010925;28;20495;-88
2023/02/13 02:12:21;;;;;;;8.63;4.93;;;;;;;0.61;100.00;102801.72;5009381;28;20136;-88
2023/02/13 02:14:49;;;;;;;10.15;5.45;;;;;;;0.48;100.00;102805.31;5026095;28;20037;-88
2023/02/13 02:17:15;;;;;;;10.27;5.53;;;;;;;0.50;100.00;102790.75;5012031;28;20064;-89
2023/02/13 02:19:50;;;;;;;12.90;4.68;;;;;;;0.65;100.00;102800.78;5027477;28;20114;-88
2023/02/13 02:22:44;;;;;;;6.22;3.92;;;;;;;1.05;100.00;102790.69;5009781;28;20457;-88
2023/02/13 02:25:46;;;;;;;11.07;4.20;;;;;;;1.33;100.00;102786.78;5016830;28;20530;-87
2023/02/13 02:28:14;;;;;;;7.30;3.58;;;;;;;1.45;97.87;102789.94;5010306;28;20018;-88
2023/02/13 02:30:48;;;;;;;9.07;4.38;;;;;;;1.36;97.88;102790.16;5010681;28;20433;-89
2023/02/13 02:33:38;;;;;;;9.52;4.07;;;;;;;1.19;99.50;102799.00;5027278;28;20018;-88
2023/02/13 02:36:22;;;;;;;7.63;4.07;;;;;;;1.15;98.83;102786.25;5006362;28;20047;-88
2023/02/13 02:39:05;;;;;;;10.05;3.22;;;;;;;0.95;100.00;102795.13;5005440;28;20193;-88
2023/02/13 02:41:48;;;;;;;6.78;3.97;;;;;;;0.91;100.00;102795.25;5011048;28;20037;-89
2023/02/13 02:44:28;;;;;;;10.30;4.65;;;;;;;0.84;100.00;102794.50;5006279;28;20507;-88
2023/02/13 02:49:57;;;;;;;8.90;4.20;;;;;;;0.67;100.00;102786.22;5026949;28;20076;-88
2023/02/13 02:53:02;;;;;;;10.35;5.50;;;;;;;0.65;100.00;102793.94;5023142;28;20025;-87
2023/02/13 02:55:36;;;;;;;11.30;5.45;;;;;;;0.57;100.00;102793.22;5023104;28;20052;-88
2023/02/13 03:06:29;;;;;;;10.32;5.30;;;;;;;0.43;100.00;102781.50;5019065;28;19992;-88
2023/02/13 03:14:34;;;;;;;8.05;4.85;;;;;;;0.14;100.00;102782.75;5024392;28;20095;-88
2023/02/13 03:23:29;;;;;;;9.55;4.90;;;;;;;-0.06;100.00;102779.63;4966206;28;20041;-88
2023/02/13 03:26:52;;;;;;;10.70;4.65;;;;;;;-0.20;100.00;102777.25;4983058;28;20603;-88
2023/02/13 03:32:25;;;;;;;13.40;5.22;;;;;;;-0.15;100.00;102780.59;4906273;29;20412;-88
2023/02/13 03:37:53;;;;;;;9.82;5.40;;;;;;;-0.11;100.00;102786.53;4911205;29;20103;-87
2023/02/13 03:41:17;;;;;;;8.23;5.25;;;;;;;-0.19;100.00;102786.63;4908507;29;20054;-88
2023/02/13 03:43:28;;;;;;;10.85;6.03;;;;;;;-0.19;100.00;102783.22;4909819;29;20036;-88
2023/02/13 03:46:00;;;;;;;9.75;6.60;;;;;;;-0.18;100.00;102777.22;4890208;29;20032;-88
2023/02/13 03:51:19;;;;;;;13.43;7.18;;;;;;;-0.09;100.00;102779.66;4912502;29;20071;-88
2023/02/13 03:53:49;;;;;;;9.30;5.65;;;;;;;-0.05;100.00;102783.91;4936513;28;20074;-88
2023/02/13 03:59:17;;;;;;;11.18;5.75;;;;;;;0.12;100.00;102784.50;4952907;28;20102;-88
2023/02/13 04:01:53;;;;;;;8.93;5.07;;;;;;;0.03;100.00;102784.59;5026486;28;20140;-88
2023/02/13 04:07:30;;;;;;;8.93;5.00;;;;;;;-0.09;100.00;102789.94;5068527;27;20398;-73
2023/02/13 04:10:01;;;;;;;7.63;5.32;;;;;;;-0.05;100.00;102782.19;5070623;28;20103;-73
2023/02/13 04:12:36;;;;;;;8.95;5.55;;;;;;;-0.12;100.00;102795.94;5067406;28;20020;-74
2023/02/13 04:15:25;;;;;;;9.30;5.00;;;;;;;-0.18;100.00;102800.28;5064412;28;20032;-73
2023/02/13 04:18:14;;;;;;;9.50;5.32;;;;;;;-0.22;100.00;102799.47;5065547;28;20025;-73
2023/02/13 04:20:40;;;;;;;11.52;4.53;;;;;;;-0.21;100.00;102795.19;5064830;28;20029;-74
2023/02/13 04:23:07;;;;;;;8.82;4.85;;;;;;;-0.28;100.00;102798.69;5060621;28;20047;-73
2023/02/13 04:25:34;;;;;;;7.28;4.68;;;;;;;-0.35;100.00;102791.09;5062163;28;20068;-71
2023/02/13 04:28:00;;;;;;;8.50;4.60;;;;;;;-0.37;100.00;102797.94;5064550;28;20124;-72
2023/02/13 04:30:25;;;;;;;9.20;4.80;;;;;;;-0.34;100.00;102795.34;5064709;28;20115;-71
2023/02/13 04:32:51;;;;;;;7.50;4.32;;;;;;;-0.29;100.00;102794.44;5060360;28;20430;-73
2023/02/13 04:35:17;;;;;;;9.40;4.57;;;;;;;-0.34;100.00;102797.91;5058306;28;20017;-73
2023/02/13 04:37:43;;;;;;;8.38;5.22;;;;;;;-0.36;100.00;102793.66;5064168;28;20025;-74
2023/02/13 04:40:09;;;;;;;7.22;4.68;;;;;;;-0.40;100.00;102797.97;5062829;28;20029;-73
2023/02/13 04:42:34;;;;;;;15.82;4.75;;;;;;;-0.43;100.00;102799.72;5062611;28;20448;-73
2023/02/13 04:45:00;;;;;;;8.60;5.13;;;;;;;-0.47;100.00;102798.91;5062841;28;20040;-73
2023/02/13 04:47:25;;;;;;;10.10;5.07;;;;;;;-0.54;100.00;102794.75;5063117;28;20111;-73
2023/02/13 04:49:51;;;;;;;9.32;4.75;;;;;;;-0.56;100.00;102791.34;5066409;28;20051;-73
2023/02/13 04:52:16;;;;;;;11.48;5.57;;;;;;;-0.59;100.00;102785.41;5065380;28;20040;-74
2023/02/13 04:54:42;;;;;;;8.68;5.22;;;;;;;-0.60;100.00;102784.56;5059512;28;20040;-74
2023/02/13 04:57:07;;;;;;;12.75;5.55;;;;;;;-0.61;100.00;102785.44;5051734;28;20033;-74
2023/02/13 04:59:33;;;;;;;5.80;4.40;;;;;;;-0.57;100.00;102791.38;5052531;28;20047;-74
2023/02/13 05:01:58;;;;;;;9.57;4.78;;;;;;;-0.57;100.00;102796.47;5057828;28;20107;-74
2023/02/13 05:04:24;;;;;;;9.93;5.72;;;;;;;-0.61;100.00;102800.78;5049629;28;20033;-74
2023/02/13 05:06:50;;;;;;;13.45;5.88;;;;;;;-0.60;100.00;102792.25;5058630;28;20053;-75
2023/02/13 05:09:15;;;;;;;15.93;6.45;;;;;;;-0.61;100.00;102798.22;5056550;28;20100;-76
2023/02/13 05:11:41;;;;;;;12.75;4.72;;;;;;;-0.60;100.00;102789.69;5063375;28;20028;-76
2023/02/13 05:14:06;;;;;;;9.95;5.20;;;;;;;-0.64;100.00;102800.81;5065018;28;20025;-75
2023/02/13 05:16:32;;;;;;;11.63;5.78;;;;;;;-0.64;100.00;102800.81;5056397;28;20543;-76
2023/02/13 05:18:57;;;;;;;9.70;5.28;;;;;;;-0.66;100.00;102792.31;5048371;28;20048;-75
2023/02/13 05:24:07;;;;;;;12.63;5.53;;;;;;;-0.57;100.00;102797.34;5044263;28;20048;-75
2023/02/13 05:26:33;;;;;;;6.63;4.53;;;;;;;-0.35;100.00;102788.50;5041093;28;20033;-75
2023/02/13 05:31:42;;;;;;;9.65;5.18;;;;;;;-0.26;100.00;102796.97;5045111;28;20074;-75
2023/02/13 05:34:07;;;;;;;8.02;5.38;;;;;;;-0.37;100.00;102790.25;5042786;28;20175;-75
2023/02/13 05:36:33;;;;;;;10.48;5.57;;;;;;;-0.43;100.00;102795.44;5041893;28;20439;-75
2023/02/13 05:38:59;;;;;;;7.68;4.93;;;;;;;-0.49;100.00;102792.97;5037449;28;20025;-76
2023/02/13 05:41:25;;;;;;;9.73;5.25;;;;;;;-0.59;100.00;102783.69;5043205;28;20183;-76
2023/02/13 05:43:50;;;;;;;9.55;4.85;;;;;;;-0.63;100.00;102781.19;5044896;28;20519;-75
2023/02/13 05:46:15;;;;;;;9.23;5.35;;;;;;;-0.68;100.00;102788.91;5046288;28;20139;-76
2023/02/13 05:48:41;;;;;;;11.60;5.70;;;;;;;-0.67;100.00;102795.72;5050619;28;20033;-76
2023/02/13 05:51:06;;;;;;;9.93;5.22;;;;;;;-0.75;100.00;102798.38;5049727;28;20087;-76
2023/02/13 05:53:35;;;;;;;13.07;5.80;;;;;;;-0.79;100.00;102790.72;5042808;28;20095;-75
2023/02/13 05:56:03;;;;;;;13.95;6.32;;;;;;;-0.80;100.00;102794.16;5047334;28;20483;-76
2023/02/13 05:58:28;;;;;;;24.58;10.55;;;;;;;-0.78;100.00;102797.53;5044151;28;20396;-76
2023/02/13 06:00:58;;;;;;;24.90;12.20;;;;;;;-0.75;100.00;102806.03;5043075;28;20030;-76
2023/02/13 06:03:25;;;;;;;26.58;12.07;;;;;;;-0.80;100.00;102805.25;5046611;28;20037;-75
2023/02/13 06:05:52;;;;;;;25.27;11.77;;;;;;;-0.82;100.00;102813.78;5050084;28;20049;-75
2023/02/13 06:08:18;;;;;;;19.25;10.13;;;;;;;-0.85;100.00;102809.56;5047578;28;20155;-76
2023/02/13 06:10:43;;;;;;;22.92;9.25;;;;;;;-0.85;100.00;102816.38;5046014;28;20385;-76
2023/02/13 06:13:08;;;;;;;16.45;9.07;;;;;;;-0.81;100.00;102815.50;5048281;28;21691;-76
2023/02/13 06:15:34;;;;;;;18.65;8.40;;;;;;;-0.78;100.00;102816.31;5048467;28;20030;-76
2023/02/13 06:18:00;;;;;;;13.80;7.40;;;;;;;-0.79;100.00;102816.31;5043073;28;20452;-75
2023/02/13 06:20:25;;;;;;;15.73;8.82;;;;;;;-0.77;100.00;102819.72;5047840;28;20039;-76
2023/02/13 06:22:52;;;;;;;19.70;9.48;;;;;;;-0.76;100.00;102816.28;5049485;28;20047;-76
2023/02/13 06:25:18;;;;;;;16.95;8.80;;;;;;;-0.73;100.00;102822.25;5049744;28;20092;-76
2023/02/13 06:27:44;;;;;;;17.65;9.15;;;;;;;-0.70;100.00;102821.38;5048255;28;20067;-76
2023/02/13 06:30:09;;;;;;;15.77;6.78;;;;;;;-0.68;100.00;102823.03;5040124;28;20134;-75
2023/02/13 06:32:35;;;;;;;20.13;7.10;;;;;;;-0.70;100.00;102831.59;5044692;28;20039;-75
2023/02/13 06:35:00;;;;;;;19.58;7.85;;;;;;;-0.69;100.00;102823.91;5036521;28;20101;-75
2023/02/13 06:37:26;;;;;;;18.38;8.05;;;;;;;-0.67;100.00;102831.56;5045795;28;20488;-75
2023/02/13 06:39:51;;;;;;;18.85;8.55;;;;;;;-0.62;100.00;102839.22;5048236;28;20546;-75
2023/02/13 06:42:17;;;;;;;13.43;7.28;;;;;;;-0.55;100.00;102838.28;5047854;28;20036;-75
2023/02/13 06:44:43;;;;;;;17.67;7.93;;;;;;;-0.47;100.00;102837.31;5037616;28;20037;-75
2023/02/13 06:47:09;;;;;;;15.85;7.35;;;;;;;-0.44;100.00;102844.97;5042556;28;20025;-76
2023/02/13 06:49:34;;;;;;;13.43;6.43;;;;;;;-0.41;100.00;102842.38;5040882;28;20029;-75
2023/02/13 06:51:59;;;;;;;10.77;6.13;;;;;;;-0.39;100.00;102848.34;5036615;28;20549;-76
2023/02/13 06:54:25;;;;;;;18.63;7.28;;;;;;;-0.32;100.00;102846.56;5047408;28;20563;-76
2023/02/13 06:56:50;;;;;;;11.60;6.72;;;;;;;-0.21;100.00;102843.88;5037664;28;20047;-75
2023/02/13 06:59:16;;;;;;;16.52;5.88;;;;;;;0.08;100.00;102839.22;5041601;28;20170;-75
2023/02/13 07:01:41;;;;;;;17.50;7.63;;;;;;;0.16;100.00;102839.97;5042617;28;20028;-76
2023/02/13 07:04:06;;;;;;;12.20;6.30;;;;;;;0.24;100.00;102840.72;5044165;28;20025;-75
2023/02/13 07:06:32;;;;;;;10.48;6.63;;;;;;;0.35;100.00;102843.16;5043200;28;20049;-75
2023/02/13 07:08:57;;;;;;;14.90;6.07;;;;;;;0.45;100.00;102849.00;5045677;28;20594;-75
2023/02/13 07:11:24;;;;;;;17.48;6.80;;;;;;;0.54;100.00;102841.16;5040920;28;20033;-76
2023/02/13 07:13:49;;;;;;;16.35;7.18;;;;;;;0.63;100.00;102843.59;5047417;28;20031;-75
2023/02/13 07:16:15;;;;;;;13.68;7.28;;;;;;;0.89;100.00;102838.06;5037663;28;20045;-75
2023/02/13 07:18:41;;;;;;;15.77;6.97;;;;;;;1.02;100.00;102838.69;5043462;28;20020;-75
2023/02/13 07:21:07;;;;;;;11.63;6.68;;;;;;;1.30;100.00;102843.31;5043491;28;20036;-75
2023/02/13 07:23:33;;;;;;;13.18;4.95;;;;;;;2.05;100.00;102853.84;5044834;28;20037;-75
2023/02/13 07:25:59;;;;;;;11.48;4.85;;;;;;;2.35;100.00;102844.66;5043404;28;20124;-75
2023/02/13 07:28:25;;;;;;;14.10;4.55;;;;;;;2.61;98.39;102839.75;5043528;28;20025;-75
2023/02/13 07:30:51;;;;;;;7.25;4.13;;;;;;;2.77;97.28;102840.25;5038488;28;20074;-75
2023/02/13 07:33:16;;;;;;;10.23;3.83;;;;;;;3.23;94.22;102840.78;5046725;28;20033;-73
2023/02/13 07:35:46;;;;;;;10.00;3.85;;;;;;;3.43;92.60;102839.38;5046948;28;20052;-75
2023/02/13 07:38:12;;;;;;;14.90;4.28;;;;;;;3.51;91.85;102840.03;5046007;28;20170;-72
2023/02/13 07:40:37;;;;;;;14.52;7.55;;;;;;;3.53;91.57;102844.25;5043256;28;20215;-73
2023/02/13 07:43:02;;;;;;;10.63;4.55;;;;;;;3.60;91.14;102843.22;5047978;28;20036;-73
2023/02/13 07:45:28;;;;;;;10.23;4.13;;;;;;;3.61;91.07;102837.16;5037618;28;20041;-73
2023/02/13 07:47:57;;;;;;;7.13;3.80;;;;;;;3.82;89.83;102830.56;5044704;28;20033;-73
2023/02/13 07:50:23;;;;;;;6.03;3.65;;;;;;;3.83;89.86;102832.25;5046532;28;20527;-73
2023/02/13 07:53:01;;;;;;;7.07;4.22;;;;;;;3.92;88.61;102836.28;5045898;28;20037;-73
2023/02/13 07:55:29;;;;;;;11.63;4.00;;;;;;;3.98;88.81;102831.81;5042173;28;20061;-69
2023/02/13 07:57:55;;;;;;;7.82;3.80;;;;;;;4.15;87.39;102839.06;5044447;28;20053;-70
2023/02/13 08:00:21;;;;;;;8.40;3.45;;;;;;;4.35;85.58;102838.44;5044138;28;20318;-70
2023/02/13 08:02:47;;;;;;;10.20;3.72;;;;;;;4.52;84.70;102825.88;5047847;28;20131;-69
2023/02/13 08:05:13;;;;;;;7.00;3.55;;;;;;;4.54;84.92;102825.81;5040184;28;20220;-69
2023/02/13 08:07:38;;;;;;;6.78;3.10;;;;;;;4.50;84.77;102825.06;5038223;28;20642;-69
2023/02/13 08:12:51;;;;;;;10.95;3.83;;;;;;;4.80;83.70;102823.22;5043860;28;20047;-69
2023/02/13 08:15:17;;;;;;;6.18;4.38;;;;;;;4.87;83.58;102823.88;5044508;28;20029;-69
2023/02/13 08:17:42;;;;;;;10.77;5.25;;;;;;;4.90;83.42;102829.78;5039022;28;20476;-69
2023/02/13 08:20:08;;;;;;;16.25;6.70;;;;;;;4.96;83.19;102832.16;5038418;28;20029;-69
2023/02/13 08:22:35;;;;;;;12.63;6.00;;;;;;;4.99;83.20;102826.06;5035032;28;20029;-69
2023/02/13 08:25:01;;;;;;;9.25;5.43;;;;;;;4.92;83.29;102828.00;5045112;28;20040;-69
2023/02/13 08:27:29;;;;;;;9.45;5.55;;;;;;;4.90;83.88;102828.94;5039047;28;20026;-69
2023/02/13 08:29:57;;;;;;;10.70;5.22;;;;;;;4.95;83.51;102822.72;5039226;28;20088;-70
2023/02/13 08:32:24;;;;;;;12.18;6.32;;;;;;;4.99;83.31;102816.56;5040276;28;20025;-69
2023/02/13 08:34:50;;;;;;;11.55;5.40;;;;;;;4.98;83.53;102822.63;5040354;28;20036;-69
2023/02/13 08:37:16;;;;;;;9.75;4.95;;;;;;;4.96;83.71;102824.41;5030843;28;20029;-69
2023/02/13 08:39:41;;;;;;;10.05;4.65;;;;;;;4.94;83.85;102825.38;5034818;28;20037;-69
2023/02/13 08:42:06;;;;;;;13.70;5.28;;;;;;;4.91;84.29;102825.47;5033273;28;20116;-69
2023/02/13 08:44:32;;;;;;;9.02;5.40;;;;;;;4.92;84.50;102817.66;5040948;28;20388;-70
2023/02/13 08:46:57;;;;;;;10.65;5.40;;;;;;;5.04;84.03;102820.75;5033415;28;20053;-70
2023/02/13 08:49:23;;;;;;;7.15;5.00;;;;;;;5.18;83.04;102819.38;5037945;28;20068;-70
2023/02/13 08:51:49;;;;;;;9.43;5.25;;;;;;;5.37;82.40;102821.31;5044300;28;20357;-70
2023/02/13 08:54:15;;;;;;;9.27;5.80;;;;;;;5.38;82.24;102823.00;5042847;28;20430;-70
2023/02/13 08:56:41;;;;;;;9.52;6.20;;;;;;;5.50;81.72;102813.06;5039301;28;20022;-70
2023/02/13 08:59:07;;;;;;;12.25;5.75;;;;;;;5.54;81.48;102813.81;5038832;28;20068;-72
2023/02/13 09:01:33;;;;;;;10.05;5.53;;;;;;;5.66;80.93;102809.03;5038806;28;20080;-70
2023/02/13 09:03:58;;;;;;;8.35;4.32;;;;;;;5.78;79.88;102809.47;5037400;28;20443;-69
2023/02/13 09:06:25;;;;;;;7.85;4.05;;;;;;;5.79;80.16;102812.00;5041195;28;20049;-70
2023/02/13 09:08:51;;;;;;;13.80;4.93;;;;;;;5.71;80.31;102815.75;5043967;28;20079;-69
2023/02/13 09:11:16;;;;;;;6.38;3.75;;;;;;;5.84;79.72;102820.44;5039105;28;20032;-70
2023/02/13 09:13:42;;;;;;;7.53;3.67;;;;;;;6.03;78.75;102807.69;5045802;28;20121;-70
2023/02/13 09:16:08;;;;;;;6.95;3.78;;;;;;;6.09;78.07;102811.78;5045100;28;20128;-70
2023/02/13 09:18:34;;;;;;;7.53;3.35;;;;;;;6.33;77.23;102800.47;5040703;28;20448;-69
2023/02/13 09:21:02;;;;;;;7.35;3.05;;;;;;;6.50;76.50;102812.75;5042366;28;20045;-69
2023/02/13 09:23:32;;;;;;;5.88;2.65;;;;;;;6.62;76.07;102820.00;5044994;28;20565;-69
2023/02/13 09:26:02;;;;;;;4.53;2.70;;;;;;;6.67;75.62;102810.31;5043986;28;20055;-70
2023/02/13 09:28:32;;;;;;;6.20;2.45;;;;;;;6.65;75.43;102805.19;5037677;28;20021;-69
2023/02/13 09:30:57;;;;;;;6.30;3.17;;;;;;;6.82;74.61;102807.09;5038338;28;20091;-69
2023/02/13 09:33:24;;;;;;;6.28;3.10;;;;;;;6.83;74.44;102813.97;5049222;28;20037;-69
2023/02/13 09:35:50;;;;;;;6.97;3.40;;;;;;;6.90;74.25;102818.00;5048249;28;20021;-69
2023/02/13 09:38:15;;;;;;;5.35;3.00;;;;;;;6.90;73.52;102818.00;5049510;28;20043;-69
2023/02/13 09:40:46;;;;;;;5.75;3.50;;;;;;;6.72;74.80;102810.13;5049691;28;20052;-70
2023/02/13 09:43:14;;;;;;;5.05;2.95;;;;;;;6.75;74.57;102805.66;5048807;28;20044;-69
2023/02/13 09:45:42;;;;;;;4.63;2.10;;;;;;;6.93;73.37;102804.06;5048303;28;20048;-69
2023/02/13 09:48:17;;;;;;;8.80;2.17;;;;;;;6.96;72.75;102812.56;5050011;28;20199;-69
2023/02/13 09:50:42;;;;;;;4.72;2.13;;;;;;;7.10;72.77;102821.47;5049027;28;20120;-69
2023/02/13 09:53:19;;;;;;;3.20;1.63;;;;;;;7.06;73.00;102814.78;5048660;28;20124;-69
2023/02/13 09:56:08;;;;;;;3.90;1.63;;;;;;;6.92;73.45;102812.75;5049060;28;20021;-70
2023/02/13 09:58:51;;;;;;;7.65;1.60;;;;;;;6.83;73.78;102806.19;5047409;28;20084;-69
2023/02/13 10:01:25;;;;;;;4.03;1.77;;;;;;;6.84;73.96;102810.47;5042398;28;20047;-69
2023/02/13 10:04:15;;;;;;;3.15;1.35;;;;;;;6.77;73.86;102813.38;5038336;28;20033;-69
2023/02/13 10:06:51;;;;;;;6.13;2.28;;;;;;;6.77;74.04;102814.22;5046394;28;20112;-73
2023/02/13 10:09:24;;;;;;;5.78;2.30;;;;;;;6.84;73.37;102802.69;5037572;28;20037;-73
2023/02/13 10:11:58;;;;;;;2.53;1.63;;;;;;;6.94;72.04;102796.22;5036376;28;20030;-73
2023/02/13 10:14:39;;;;;;;9.05;2.67;;;;;;;7.17;70.03;102791.81;5037167;28;20436;-73
2023/02/13 10:17:45;;;;;;;5.63;1.80;;;;;;;7.20;70.93;102804.63;5036362;28;20025;-74
2023/02/13 10:20:22;;;;;;;5.40;2.07;;;;;;;7.15;70.31;102802.22;5042238;28;20041;-73
2023/02/13 10:22:57;;;;;;;7.25;2.13;;;;;;;7.14;70.91;102792.78;5033240;28;20051;-73
2023/02/13 10:25:39;;;;;;;5.35;1.95;;;;;;;7.11;71.34;102786.88;5031500;28;20060;-73
2023/02/13 10:28:23;;;;;;;5.20;1.98;;;;;;;7.25;70.81;102787.13;5041351;28;20101;-73
2023/02/13 10:30:54;;;;;;;4.80;2.20;;;;;;;7.32;70.69;102784.19;5036111;28;20344;-73
2023/02/13 10:33:26;;;;;;;7.07;2.33;;;;;;;7.42;70.46;102784.66;5038012;28;20029;-73
2023/02/13 10:36:04;;;;;;;5.72;1.80;;;;;;;7.45;70.45;102779.31;5038252;28;20472;-73
2023/02/13 10:38:32;;;;;;;4.00;1.65;;;;;;;7.61;69.72;102777.72;5035237;28;20156;-73
2023/02/13 10:41:10;;;;;;;3.97;2.00;;;;;;;7.80;68.62;102776.88;5044460;28;21143;-73
2023/02/13 10:44:04;;;;;;;6.28;1.88;;;;;;;8.03;66.96;102778.41;5043185;28;20567;-73
2023/02/13 10:46:38;;;;;;;2.97;1.70;;;;;;;8.08;67.40;102772.06;5039514;28;20457;-73
2023/02/13 10:49:27;;;;;;;2.92;1.25;;;;;;;8.01;67.95;102765.50;5036334;28;20045;-73
2023/02/13 10:52:30;;;;;;;3.35;1.60;;;;;;;7.98;66.84;102753.50;5045038;28;20502;-72
2023/02/13 10:55:14;;;;;;;3.83;1.42;;;;;;;8.05;67.00;102761.81;5040914;28;20035;-72
2023/02/13 10:57:58;;;;;;;3.72;1.30;;;;;;;8.09;66.48;102758.19;5045394;28;20050;-73
2023/02/13 11:00:44;;;;;;;2.03;1.10;;;;;;;8.12;66.77;102755.44;5042155;28;20085;-73
2023/02/13 11:03:19;;;;;;;3.92;1.58;;;;;;;8.22;66.70;102741.09;5038029;28;20699;-74
2023/02/13 11:05:44;;;;;;;4.32;1.15;;;;;;;8.21;67.04;102742.00;5035237;28;20045;-74
2023/02/13 11:08:20;;;;;;;1.90;1.20;;;;;;;8.10;67.07;102733.91;5035956;28;20032;-70
2023/02/13 11:10:46;;;;;;;4.40;1.65;;;;;;;8.04;66.99;102736.78;5036508;28;20400;-74
2023/02/13 11:13:22;;;;;;;2.33;1.30;;;;;;;8.08;66.64;102735.72;5037934;28;20029;-74
2023/02/13 11:16:09;;;;;;;3.13;1.10;;;;;;;8.19;65.93;102737.81;5035908;28;20033;-75
2023/02/13 11:18:40;;;;;;;2.78;1.35;;;;;;;8.19;66.59;102733.47;5035222;28;20038;-75
2023/02/13 11:21:07;;;;;;;2.17;1.15;;;;;;;8.09;66.73;102733.97;5046376;28;20100;-76
2023/02/13 11:23:40;;;;;;;2.90;1.33;;;;;;;8.31;65.55;102717.28;5038255;28;20040;-74
2023/02/13 11:26:10;;;;;;;5.40;1.00;;;;;;;8.49;65.09;102714.75;5041951;28;20029;-76
2023/02/13 11:28:45;;;;;;;3.95;1.20;;;;;;;8.59;65.21;102715.94;5042967;28;20452;-77
2023/02/13 11:31:19;;;;;;;3.87;2.53;;;;;;;8.90;64.31;102721.28;5045132;28;20704;-76
2023/02/13 11:33:44;;;;;;;5.13;1.30;;;;;;;9.05;63.87;102710.97;5039804;28;20370;-76
2023/02/13 11:36:21;;;;;;;3.30;1.33;;;;;;;8.99;63.73;102705.16;5039156;28;20255;-76
2023/02/13 11:38:56;;;;;;;3.88;1.20;;;;;;;9.02;64.00;102703.31;5043816;28;20040;-76
2023/02/13 11:41:24;;;;;;;3.35;1.50;;;;;;;8.98;64.44;102711.28;5040712;28;20064;-76
2023/02/13 11:43:59;;;;;;;4.78;1.33;;;;;;;8.95;64.37;102701.06;5044511;28;20032;-76
2023/02/13 11:46:27;;;;;;;3.95;1.55;;;;;;;8.91;64.27;102701.31;5045070;28;20053;-76
2023/02/13 11:49:04;;;;;;;2.28;1.20;;;;;;;8.96;63.34;102699.31;5042949;28;20111;-76
2023/02/13 11:51:36;;;;;;;2.88;1.40;;;;;;;9.04;63.23;102701.50;5040184;28;20088;-76
2023/02/13 11:54:03;;;;;;;3.88;1.23;;;;;;;9.05;63.29;102708.38;5038372;28;20035;-76
2023/02/13 11:56:47;;;;;;;3.28;1.40;;;;;;;9.10;62.16;102701.16;5041147;28;20066;-76
2023/02/13 11:59:13;;;;;;;3.55;1.38;;;;;;;9.12;62.86;102701.94;5040918;28;20065;-76
2023/02/13 12:01:38;;;;;;;2.13;1.17;;;;;;;9.17;62.38;102692.97;5039831;28;20055;-76
2023/02/13 12:04:16;;;;;;;3.28;1.67;;;;;;;9.24;62.29;102678.72;5039961;28;20098;-75
2023/02/13 12:06:58;;;;;;;3.80;1.30;;;;;;;9.29;60.60;102686.28;5042447;28;20459;-75
2023/02/13 12:09:23;;;;;;;3.35;1.35;;;;;;;9.22;61.48;102690.13;5038169;28;20038;-75
2023/02/13 12:11:52;;;;;;;3.72;1.38;;;;;;;9.13;61.62;102685.41;5045000;28;20124;-75
2023/02/13 12:14:24;;;;;;;2.42;1.10;;;;;;;9.23;61.49;102668.41;5042925;28;20087;-76
2023/02/13 12:16:59;;;;;;;2.83;1.13;;;;;;;9.40;61.31;102662.28;5041760;28;20060;-76
2023/02/13 12:19:32;;;;;;;2.50;1.20;;;;;;;9.40;60.83;102665.72;5042233;28;20400;-76
2023/02/13 12:22:10;;;;;;;1.98;0.88;;;;;;;9.48;60.41;102667.88;5045582;28;20051;-76
2023/02/13 12:24:57;;;;;;;3.28;0.90;;;;;;;9.43;60.63;102662.97;5043356;28;20481;-76